createdAt,value
2018-11-05T00:00:01.716Z,10.36
2018-11-05T00:01:01.692Z,10.42
2018-11-05T00:02:01.669Z,10.47
2018-11-05T00:03:01.644Z,10.46
2018-11-05T00:04:01.621Z,10.42
2018-11-05T00:05:01.596Z,10.44
2018-11-05T00:06:01.572Z,10.51
2018-11-05T00:07:01.551Z,10.43
2018-11-05T00:08:01.525Z,10.39
2018-11-05T00:09:01.499Z,10.47
2018-11-05T00:10:01.479Z,10.33
2018-11-05T00:11:01.453Z,10.52
2018-11-05T00:12:01.430Z,10.37
2018-11-05T00:13:01.405Z,10.42
2018-11-05T00:14:01.383Z,10.42
2018-11-05T00:15:01.358Z,10.42
2018-11-05T00:16:01.331Z,10.42
2018-11-05T00:17:01.311Z,10.55
2018-11-05T00:18:01.285Z,10.52
2018-11-05T00:19:01.260Z,10.39
2018-11-05T00:20:01.236Z,10.40
2018-11-05T00:21:01.211Z,10.39
2018-11-05T00:22:01.189Z,10.39
2018-11-05T00:23:01.165Z,10.39
2018-11-05T00:24:01.143Z,10.37
2018-11-05T00:25:01.123Z,10.40
2018-11-05T00:26:01.092Z,10.32
2018-11-05T00:27:01.068Z,10.42
2018-11-05T00:28:01.042Z,10.36
2018-11-05T00:29:01.019Z,10.37
2018-11-05T00:30:00.995Z,10.47
2018-11-05T00:31:00.971Z,10.42
2018-11-05T00:32:00.949Z,10.34
2018-11-05T00:33:00.924Z,10.39
2018-11-05T00:34:00.898Z,10.34
2018-11-05T00:35:00.875Z,10.36
2018-11-05T00:36:00.852Z,10.34
2018-11-05T00:37:00.826Z,10.40
2018-11-05T00:38:00.807Z,10.42
2018-11-05T00:39:00.779Z,10.37
2018-11-05T00:40:00.754Z,10.40
2018-11-05T00:41:00.729Z,10.37
2018-11-05T00:42:00.711Z,10.37
2018-11-05T00:43:00.682Z,10.39
2018-11-05T00:44:00.660Z,10.37
2018-11-05T00:45:00.634Z,10.36
2018-11-05T00:46:00.609Z,10.37
2018-11-05T00:47:00.586Z,10.39
2018-11-05T00:48:00.592Z,10.42
2018-11-05T00:49:00.537Z,10.34
2018-11-05T00:50:00.513Z,10.37
2018-11-05T00:51:01.240Z,10.22
2018-11-05T00:52:00.464Z,10.24
2018-11-05T00:53:00.440Z,10.24
2018-11-05T00:54:00.416Z,10.30
2018-11-05T00:55:00.392Z,10.25
2018-11-05T00:56:00.490Z,10.36
2018-11-05T00:57:00.344Z,10.39
2018-11-05T00:58:00.321Z,10.42
2018-11-05T00:59:00.300Z,10.42
2018-11-05T01:00:00.277Z,10.42
2018-11-05T01:01:00.250Z,10.24
2018-11-05T01:02:00.227Z,10.22
2018-11-05T01:03:00.200Z,10.28
2018-11-05T01:04:00.176Z,10.24
2018-11-05T01:05:00.150Z,10.33
2018-11-05T01:06:00.126Z,10.28
2018-11-05T01:07:00.103Z,10.24
2018-11-05T01:08:00.080Z,10.28
2018-11-05T01:09:00.056Z,10.28
2018-11-05T01:10:00.031Z,10.21
2018-11-05T01:11:00.008Z,10.24
2018-11-05T01:11:59.983Z,10.25
2018-11-05T01:12:59.966Z,10.17
2018-11-05T01:13:59.934Z,10.33
2018-11-05T01:14:59.910Z,10.26
2018-11-05T01:15:59.885Z,10.32
2018-11-05T01:16:59.862Z,10.39
2018-11-05T01:17:59.841Z,10.40
2018-11-05T01:18:59.813Z,10.36
2018-11-05T01:19:59.790Z,10.28
2018-11-05T01:20:59.764Z,10.36
2018-11-05T01:21:59.749Z,10.34
2018-11-05T01:22:59.716Z,10.28
2018-11-05T01:23:59.692Z,10.25
2018-11-05T01:24:59.668Z,10.37
2018-11-05T01:25:59.644Z,10.39
2018-11-05T01:26:59.620Z,10.36
2018-11-05T01:27:59.597Z,10.37
2018-11-05T01:28:59.571Z,10.42
2018-11-05T01:29:59.548Z,10.51
2018-11-05T01:30:59.523Z,10.39
2018-11-05T01:31:59.500Z,10.37
2018-11-05T01:32:59.478Z,10.34
2018-11-05T01:33:59.450Z,10.51
2018-11-05T01:34:59.427Z,10.37
2018-11-05T01:35:59.402Z,10.25
2018-11-05T01:36:59.388Z,10.24
2018-11-05T01:37:59.354Z,10.30
2018-11-05T01:38:59.333Z,10.34
2018-11-05T01:39:59.307Z,10.32
2018-11-05T01:40:59.281Z,10.28
2018-11-05T01:41:59.259Z,10.21
2018-11-05T01:42:59.234Z,10.24
2018-11-05T01:43:59.210Z,10.24
2018-11-05T01:44:59.190Z,10.21
2018-11-05T01:45:59.161Z,10.12
2018-11-05T01:46:59.137Z,10.25
2018-11-05T01:47:59.114Z,10.26
2018-11-05T01:48:59.090Z,10.28
2018-11-05T01:49:59.064Z,10.34
2018-11-05T01:50:59.041Z,10.26
2018-11-05T01:51:59.016Z,10.36
2018-11-05T01:52:58.991Z,10.25
2018-11-05T01:53:58.966Z,10.37
2018-11-05T01:54:58.943Z,10.40
2018-11-05T01:55:58.918Z,10.40
2018-11-05T01:56:58.894Z,10.34
2018-11-05T01:57:58.870Z,10.37
2018-11-05T01:58:58.849Z,10.40
2018-11-05T01:59:58.821Z,10.39
2018-11-05T02:00:58.808Z,10.34
2018-11-05T02:01:58.775Z,10.36
2018-11-05T02:02:58.753Z,10.28
2018-11-05T02:03:58.727Z,10.28
2018-11-05T02:05:00.206Z,10.21
2018-11-05T02:05:58.678Z,10.15
2018-11-05T02:06:58.659Z,10.18
2018-11-05T02:07:58.630Z,10.19
2018-11-05T02:08:58.611Z,10.10
2018-11-05T02:09:58.580Z,10.14
2018-11-05T02:10:58.557Z,10.10
2018-11-05T02:11:58.531Z,10.04
2018-11-05T02:12:58.508Z,10.09
2018-11-05T02:13:58.484Z,10.09
2018-11-05T02:14:58.461Z,10.19
2018-11-05T02:15:58.516Z,10.15
2018-11-05T02:16:58.411Z,10.14
2018-11-05T02:17:58.390Z,10.14
2018-11-05T02:18:58.363Z,10.17
2018-11-05T02:19:58.342Z,10.25
2018-11-05T02:20:58.316Z,10.18
2018-11-05T02:21:58.292Z,10.12
2018-11-05T02:22:58.268Z,10.17
2018-11-05T02:23:58.241Z,10.18
2018-11-05T02:24:58.219Z,10.12
2018-11-05T02:25:58.195Z,10.17
2018-11-05T02:26:58.192Z,10.15
2018-11-05T02:27:58.146Z,10.25
2018-11-05T02:28:58.122Z,10.32
2018-11-05T02:29:58.096Z,10.26
2018-11-05T02:30:58.074Z,10.25
2018-11-05T02:31:58.050Z,10.28
2018-11-05T02:32:58.024Z,10.28
2018-11-05T02:33:58.001Z,10.12
2018-11-05T02:34:57.976Z,10.17
2018-11-05T02:35:57.952Z,10.15
2018-11-05T02:36:57.928Z,10.22
2018-11-05T02:37:57.905Z,10.15
2018-11-05T02:38:57.880Z,10.15
2018-11-05T02:39:57.856Z,10.10
2018-11-05T02:40:57.832Z,10.14
2018-11-05T02:41:57.808Z,10.18
2018-11-05T02:42:57.786Z,10.17
2018-11-05T02:43:57.760Z,10.25
2018-11-05T02:44:57.736Z,10.28
2018-11-05T02:45:57.712Z,10.28
2018-11-05T02:46:57.689Z,10.22
2018-11-05T02:47:57.663Z,10.25
2018-11-05T02:48:57.639Z,10.30
2018-11-05T02:49:57.616Z,10.17
2018-11-05T02:50:57.592Z,10.19
2018-11-05T02:51:57.568Z,9.93
2018-11-05T02:52:57.543Z,9.94
2018-11-05T02:53:57.529Z,10.01
2018-11-05T02:54:57.496Z,9.96
2018-11-05T02:55:57.472Z,9.88
2018-11-05T02:56:57.447Z,9.94
2018-11-05T02:57:57.423Z,10.00
2018-11-05T02:58:57.399Z,9.91
2018-11-05T02:59:57.375Z,9.99
2018-11-05T03:00:57.350Z,9.94
2018-11-05T03:01:57.328Z,9.96
2018-11-05T03:02:57.306Z,9.86
2018-11-05T03:03:57.279Z,9.94
2018-11-05T03:04:57.254Z,9.91
2018-11-05T03:05:57.231Z,9.89
2018-11-05T03:06:57.207Z,9.91
2018-11-05T03:07:57.181Z,9.97
2018-11-05T03:08:57.157Z,9.89
2018-11-05T03:09:57.133Z,9.85
2018-11-05T03:10:57.109Z,9.86
2018-11-05T03:11:57.085Z,9.93
2018-11-05T03:12:57.060Z,9.94
2018-11-05T03:13:57.036Z,10.03
2018-11-05T03:14:57.013Z,9.93
2018-11-05T03:15:56.987Z,9.89
2018-11-05T03:16:56.964Z,9.96
2018-11-05T03:17:56.940Z,9.94
2018-11-05T03:18:56.915Z,9.91
2018-11-05T03:19:56.890Z,9.88
2018-11-05T03:20:56.869Z,9.88
2018-11-05T03:21:56.842Z,9.94
2018-11-05T03:22:56.819Z,9.96
2018-11-05T03:23:56.793Z,9.96
2018-11-05T03:24:56.769Z,9.93
2018-11-05T03:25:56.745Z,9.97
2018-11-05T03:26:56.725Z,10.06
2018-11-05T03:27:56.696Z,10.06
2018-11-05T03:28:56.675Z,9.93
2018-11-05T03:29:56.651Z,9.96
2018-11-05T03:30:56.633Z,9.94
2018-11-05T03:31:56.600Z,9.94
2018-11-05T03:32:56.579Z,10.03
2018-11-05T03:33:56.553Z,9.97
2018-11-05T03:34:56.528Z,10.04
2018-11-05T03:35:56.630Z,10.00
2018-11-05T03:36:56.493Z,10.00
2018-11-05T03:37:56.456Z,10.06
2018-11-05T03:38:56.432Z,9.93
2018-11-05T03:39:57.158Z,9.96
2018-11-05T03:40:56.389Z,9.91
2018-11-05T03:41:56.359Z,9.96
2018-11-05T03:42:56.336Z,9.85
2018-11-05T03:43:56.310Z,9.93
2018-11-05T03:44:56.287Z,9.75
2018-11-05T03:45:56.263Z,9.86
2018-11-05T03:46:56.240Z,9.68
2018-11-05T03:47:56.214Z,9.82
2018-11-05T03:48:56.239Z,9.68
2018-11-05T03:49:56.166Z,9.79
2018-11-05T03:50:56.142Z,9.75
2018-11-05T03:51:56.117Z,9.78
2018-11-05T03:52:56.095Z,9.75
2018-11-05T03:53:56.071Z,9.78
2018-11-05T03:54:56.050Z,9.81
2018-11-05T03:55:56.798Z,9.83
2018-11-05T03:56:55.998Z,9.81
2018-11-05T03:57:55.973Z,9.85
2018-11-05T03:58:55.949Z,9.82
2018-11-05T03:59:55.924Z,9.85
2018-11-05T04:00:55.907Z,9.78
2018-11-05T04:01:55.875Z,9.73
2018-11-05T04:02:55.852Z,9.70
2018-11-05T04:03:55.827Z,9.71
2018-11-05T04:04:55.806Z,9.76
2018-11-05T04:05:55.778Z,9.86
2018-11-05T04:06:55.756Z,9.83
2018-11-05T04:07:55.729Z,9.83
2018-11-05T04:08:55.707Z,9.86
2018-11-05T04:09:55.683Z,9.86
2018-11-05T04:10:55.658Z,9.75
2018-11-05T04:11:55.633Z,9.75
2018-11-05T04:12:55.609Z,9.88
2018-11-05T04:13:55.585Z,9.75
2018-11-05T04:14:55.562Z,9.76
2018-11-05T04:15:55.618Z,9.79
2018-11-05T04:16:55.512Z,9.73
2018-11-05T04:17:55.492Z,9.64
2018-11-05T04:18:55.465Z,9.64
2018-11-05T04:19:55.439Z,9.60
2018-11-05T04:20:55.417Z,9.60
2018-11-05T04:21:55.391Z,9.66
2018-11-05T04:22:55.368Z,9.70
2018-11-05T04:23:55.344Z,9.64
2018-11-05T04:24:55.318Z,9.61
2018-11-05T04:25:55.297Z,9.57
2018-11-05T04:26:55.270Z,9.63
2018-11-05T04:27:55.354Z,9.66
2018-11-05T04:28:55.221Z,9.64
2018-11-05T04:29:55.199Z,9.66
2018-11-05T04:30:55.174Z,9.75
2018-11-05T04:31:55.150Z,9.63
2018-11-05T04:32:55.125Z,9.56
2018-11-05T04:33:55.101Z,9.58
2018-11-05T04:34:55.077Z,9.58
2018-11-05T04:35:55.052Z,9.63
2018-11-05T04:36:55.028Z,9.66
2018-11-05T04:37:55.005Z,9.73
2018-11-05T04:38:54.980Z,9.71
2018-11-05T04:39:54.954Z,9.71
2018-11-05T04:40:54.934Z,9.73
2018-11-05T04:41:54.906Z,9.66
2018-11-05T04:42:54.883Z,9.53
2018-11-05T04:43:55.608Z,9.60
2018-11-05T04:44:54.832Z,9.56
2018-11-05T04:45:54.809Z,9.60
2018-11-05T04:46:54.792Z,9.50
2018-11-05T04:47:54.760Z,9.53
2018-11-05T04:48:54.741Z,9.53
2018-11-05T04:49:54.712Z,9.58
2018-11-05T04:50:54.689Z,9.53
2018-11-05T04:51:54.663Z,9.57
2018-11-05T04:52:54.638Z,9.56
2018-11-05T04:53:54.614Z,9.45
2018-11-05T04:54:54.590Z,9.43
2018-11-05T04:55:54.568Z,9.50
2018-11-05T04:56:54.589Z,9.46
2018-11-05T04:57:54.517Z,9.48
2018-11-05T04:58:54.494Z,9.43
2018-11-05T04:59:54.467Z,9.43
2018-11-05T05:00:54.444Z,9.45
2018-11-05T05:01:54.420Z,9.39
2018-11-05T05:02:54.396Z,9.39
2018-11-05T05:03:54.371Z,9.50
2018-11-05T05:04:54.346Z,9.52
2018-11-05T05:05:54.322Z,9.46
2018-11-05T05:06:54.296Z,9.45
2018-11-05T05:07:54.272Z,9.48
2018-11-05T05:08:54.248Z,9.52
2018-11-05T05:09:54.224Z,9.46
2018-11-05T05:10:54.199Z,9.42
2018-11-05T05:11:54.175Z,9.53
2018-11-05T05:12:54.150Z,9.48
2018-11-05T05:13:54.126Z,9.49
2018-11-05T05:14:54.102Z,9.40
2018-11-05T05:15:54.076Z,9.49
2018-11-05T05:16:54.052Z,9.42
2018-11-05T05:17:54.030Z,9.45
2018-11-05T05:18:54.005Z,9.42
2018-11-05T05:19:53.979Z,9.43
2018-11-05T05:20:53.955Z,9.43
2018-11-05T05:21:53.931Z,9.43
2018-11-05T05:22:54.171Z,9.35
2018-11-05T05:23:53.881Z,9.34
2018-11-05T05:24:53.856Z,9.35
2018-11-05T05:25:53.834Z,9.40
2018-11-05T05:26:53.812Z,9.32
2018-11-05T05:27:53.784Z,9.38
2018-11-05T05:28:53.760Z,9.34
2018-11-05T05:29:53.737Z,9.35
2018-11-05T05:30:53.712Z,9.43
2018-11-05T05:31:53.685Z,9.40
2018-11-05T05:32:53.703Z,9.39
2018-11-05T05:33:53.637Z,9.35
2018-11-05T05:34:53.613Z,9.43
2018-11-05T05:35:53.589Z,9.48
2018-11-05T05:36:53.564Z,9.43
2018-11-05T05:37:53.540Z,9.38
2018-11-05T05:38:53.516Z,9.34
2018-11-05T05:39:53.495Z,9.32
2018-11-05T05:40:53.578Z,9.35
2018-11-05T05:41:53.444Z,9.40
2018-11-05T05:42:54.922Z,9.34
2018-11-05T05:43:53.393Z,9.39
2018-11-05T05:44:53.368Z,9.46
2018-11-05T05:45:53.345Z,9.32
2018-11-05T05:46:53.322Z,9.48
2018-11-05T05:47:53.294Z,9.45
2018-11-05T05:48:53.272Z,9.45
2018-11-05T05:49:53.301Z,9.43
2018-11-05T05:50:53.222Z,9.45
2018-11-05T05:51:53.198Z,9.46
2018-11-05T05:52:53.174Z,9.46
2018-11-05T05:53:53.150Z,9.35
2018-11-05T05:54:53.125Z,9.43
2018-11-05T05:55:53.099Z,9.39
2018-11-05T05:56:53.075Z,9.32
2018-11-05T05:57:53.052Z,9.40
2018-11-05T05:58:53.030Z,9.24
2018-11-05T05:59:53.044Z,9.24
2018-11-05T06:00:52.978Z,9.30
2018-11-05T06:01:52.953Z,9.23
2018-11-05T06:02:52.928Z,9.28
2018-11-05T06:03:52.904Z,9.39
2018-11-05T06:04:52.881Z,9.30
2018-11-05T06:05:52.921Z,9.38
2018-11-05T06:06:52.831Z,9.35
2018-11-05T06:07:52.806Z,9.40
2018-11-05T06:08:52.781Z,9.45
2018-11-05T06:09:52.757Z,9.49
2018-11-05T06:10:52.734Z,9.48
2018-11-05T06:11:52.708Z,9.43
2018-11-05T06:12:52.686Z,9.52
2018-11-05T06:13:52.687Z,9.52
2018-11-05T06:14:52.635Z,9.57
2018-11-05T06:15:52.724Z,9.60
2018-11-05T06:16:52.588Z,9.52
2018-11-05T06:17:52.564Z,9.46
2018-11-05T06:18:52.545Z,9.45
2018-11-05T06:19:52.515Z,9.58
2018-11-05T06:20:52.489Z,9.52
2018-11-05T06:21:57.062Z,9.64
2018-11-05T06:22:52.442Z,9.61
2018-11-05T06:23:52.416Z,9.49
2018-11-05T06:24:52.391Z,9.45
2018-11-05T06:25:52.367Z,9.52
2018-11-05T06:26:52.343Z,9.50
2018-11-05T06:27:55.323Z,9.56
2018-11-05T06:28:52.294Z,9.56
2018-11-05T06:29:52.270Z,9.58
2018-11-05T06:30:52.246Z,9.58
2018-11-05T06:31:52.221Z,9.52
2018-11-05T06:32:52.207Z,9.66
2018-11-05T06:33:52.172Z,9.66
2018-11-05T06:34:52.148Z,9.67
2018-11-05T06:35:52.123Z,9.61
2018-11-05T06:36:52.099Z,9.61
2018-11-05T06:37:52.075Z,9.68
2018-11-05T06:38:52.051Z,9.68
2018-11-05T06:39:52.028Z,9.70
2018-11-05T06:40:52.001Z,9.67
2018-11-05T06:41:52.056Z,9.71
2018-11-05T06:42:51.956Z,9.70
2018-11-05T06:43:51.929Z,9.68
2018-11-05T06:44:52.036Z,9.70
2018-11-05T06:45:51.883Z,9.73
2018-11-05T06:46:51.859Z,9.70
2018-11-05T06:47:51.832Z,9.79
2018-11-05T06:48:51.810Z,9.71
2018-11-05T06:49:51.783Z,9.67
2018-11-05T06:50:51.759Z,9.81
2018-11-05T06:51:51.734Z,9.82
2018-11-05T06:52:51.852Z,9.75
2018-11-05T06:53:51.687Z,9.86
2018-11-05T06:54:51.662Z,9.79
2018-11-05T06:55:51.637Z,9.83
2018-11-05T06:56:51.613Z,9.70
2018-11-05T06:57:51.670Z,9.79
2018-11-05T06:58:51.565Z,9.82
2018-11-05T06:59:51.541Z,9.76
2018-11-05T07:00:51.518Z,9.75
2018-11-05T07:01:51.496Z,9.82
2018-11-05T07:02:51.469Z,9.73
2018-11-05T07:03:51.443Z,9.83
2018-11-05T07:04:51.419Z,9.83
2018-11-05T07:05:51.434Z,9.73
2018-11-05T07:06:51.372Z,9.83
2018-11-05T07:07:51.348Z,9.81
2018-11-05T07:08:51.326Z,9.85
2018-11-05T07:09:51.397Z,9.81
2018-11-05T07:10:51.275Z,9.83
2018-11-05T07:11:51.251Z,9.78
2018-11-05T07:12:51.226Z,9.83
2018-11-05T07:13:51.206Z,9.79
2018-11-05T07:14:51.178Z,9.82
2018-11-05T07:15:51.152Z,9.79
2018-11-05T07:16:51.129Z,9.75
2018-11-05T07:17:51.106Z,9.89
2018-11-05T07:18:51.291Z,9.97
2018-11-05T07:19:51.057Z,9.97
2018-11-05T07:20:51.033Z,9.94
2018-11-05T07:21:51.013Z,9.93
2018-11-05T07:22:50.985Z,9.94
2018-11-05T07:23:50.963Z,9.94
2018-11-05T07:24:50.936Z,9.93
2018-11-05T07:25:50.912Z,9.85
2018-11-05T07:26:50.888Z,9.82
2018-11-05T07:27:51.715Z,9.83
2018-11-05T07:28:50.838Z,9.89
2018-11-05T07:29:50.815Z,9.83
2018-11-05T07:30:50.791Z,9.85
2018-11-05T07:31:50.766Z,9.97
2018-11-05T07:32:50.742Z,9.94
2018-11-05T07:33:50.837Z,9.96
2018-11-05T07:34:50.695Z,10.01
2018-11-05T07:35:50.673Z,9.83
2018-11-05T07:36:50.645Z,9.68
2018-11-05T07:37:50.624Z,9.73
2018-11-05T07:38:50.599Z,9.83
2018-11-05T07:39:50.572Z,9.81
2018-11-05T07:40:50.548Z,9.86
2018-11-05T07:41:50.525Z,9.86
2018-11-05T07:42:50.500Z,10.01
2018-11-05T07:43:50.476Z,9.94
2018-11-05T07:44:50.454Z,9.85
2018-11-05T07:45:50.429Z,9.81
2018-11-05T07:46:50.405Z,9.73
2018-11-05T07:47:50.384Z,9.82
2018-11-05T07:48:50.358Z,9.83
2018-11-05T07:49:50.331Z,9.82
2018-11-05T07:50:50.410Z,9.89
2018-11-05T07:51:50.282Z,9.86
2018-11-05T07:52:50.258Z,9.89
2018-11-05T07:53:50.250Z,9.89
2018-11-05T07:54:50.211Z,9.93
2018-11-05T07:55:50.185Z,9.93
2018-11-05T07:56:50.227Z,9.81
2018-11-05T07:57:50.137Z,9.75
2018-11-05T07:58:50.114Z,9.81
2018-11-05T07:59:50.091Z,9.78
2018-11-05T08:00:50.069Z,9.86
2018-11-05T08:01:50.046Z,9.94
2018-11-05T08:02:50.149Z,9.97
2018-11-05T08:03:49.999Z,9.93
2018-11-05T08:04:50.719Z,9.96
2018-11-05T08:05:49.945Z,9.85
2018-11-05T08:06:49.927Z,9.68
2018-11-05T08:07:49.896Z,9.75
2018-11-05T08:08:49.871Z,9.85
2018-11-05T08:09:49.847Z,9.91
2018-11-05T08:10:49.826Z,9.93
2018-11-05T08:11:49.799Z,9.96
2018-11-05T08:12:49.775Z,9.94
2018-11-05T08:13:49.752Z,9.82
2018-11-05T08:14:49.727Z,9.85
2018-11-05T08:15:49.703Z,9.82
2018-11-05T08:16:49.678Z,9.83
2018-11-05T08:17:49.655Z,9.89
2018-11-05T08:18:49.630Z,9.97
2018-11-05T08:19:49.655Z,9.91
2018-11-05T08:20:49.581Z,9.94
2018-11-05T08:21:49.559Z,9.94
2018-11-05T08:22:49.533Z,9.97
2018-11-05T08:23:49.509Z,9.89
2018-11-05T08:24:49.486Z,9.96
2018-11-05T08:25:49.463Z,9.99
2018-11-05T08:26:49.438Z,9.94
2018-11-05T08:27:49.416Z,10.09
2018-11-05T08:28:49.394Z,10.07
2018-11-05T08:29:49.366Z,10.03
2018-11-05T08:30:49.342Z,10.14
2018-11-05T08:31:49.320Z,10.14
2018-11-05T08:32:49.293Z,10.09
2018-11-05T08:33:49.270Z,10.14
2018-11-05T08:34:49.247Z,10.17
2018-11-05T08:35:49.222Z,10.28
2018-11-05T08:36:49.198Z,10.17
2018-11-05T08:37:49.175Z,10.21
2018-11-05T08:38:49.150Z,10.32
2018-11-05T08:39:49.126Z,10.37
2018-11-05T08:40:49.105Z,10.42
2018-11-05T08:41:49.081Z,10.42
2018-11-05T08:42:49.056Z,10.52
2018-11-05T08:43:49.033Z,10.52
2018-11-05T08:44:49.009Z,10.53
2018-11-05T08:45:48.984Z,10.53
2018-11-05T08:46:49.039Z,10.43
2018-11-05T08:47:51.190Z,10.51
2018-11-05T08:48:48.913Z,10.34
2018-11-05T08:49:48.891Z,10.40
2018-11-05T08:50:49.077Z,10.28
2018-11-05T08:51:49.188Z,10.26
2018-11-05T08:52:48.818Z,10.30
2018-11-05T08:53:48.834Z,10.14
2018-11-05T08:54:48.772Z,10.07
2018-11-05T08:55:48.748Z,10.18
2018-11-05T08:56:48.725Z,10.17
2018-11-05T08:57:48.894Z,10.06
2018-11-05T08:58:48.676Z,9.99
2018-11-05T08:59:48.654Z,10.03
2018-11-05T09:00:48.638Z,10.14
2018-11-05T09:01:48.606Z,10.21
2018-11-05T09:02:48.584Z,10.10
2018-11-05T09:03:48.557Z,9.93
2018-11-05T09:04:48.647Z,9.89
2018-11-05T09:05:48.511Z,9.85
2018-11-05T09:06:48.490Z,9.99
2018-11-05T09:07:48.463Z,10.07
2018-11-05T09:08:48.445Z,10.15
2018-11-05T09:09:48.484Z,10.15
2018-11-05T09:10:48.786Z,10.17
2018-11-05T09:11:48.439Z,10.28
2018-11-05T09:12:48.344Z,10.34
2018-11-05T09:13:48.321Z,10.37
2018-11-05T09:14:48.297Z,10.40
2018-11-05T09:15:48.273Z,10.36
2018-11-05T09:16:48.250Z,10.42
2018-11-05T09:17:48.226Z,10.39
2018-11-05T09:18:48.202Z,10.34
2018-11-05T09:19:48.178Z,10.44
2018-11-05T09:20:48.324Z,10.37
2018-11-05T09:21:48.132Z,10.51
2018-11-05T09:22:48.110Z,10.47
2018-11-05T09:23:48.084Z,10.46
2018-11-05T09:24:48.065Z,10.51
2018-11-05T09:25:48.038Z,10.51
2018-11-05T09:26:48.014Z,10.62
2018-11-05T09:27:48.052Z,10.71
2018-11-05T09:28:47.967Z,10.71
2018-11-05T09:29:47.943Z,10.74
2018-11-05T09:30:49.421Z,10.88
2018-11-05T09:31:47.895Z,10.88
2018-11-05T09:32:47.876Z,10.95
2018-11-05T09:33:47.850Z,10.89
2018-11-05T09:34:47.827Z,10.95
2018-11-05T09:35:47.802Z,10.99
2018-11-05T09:36:47.780Z,10.98
2018-11-05T09:37:47.758Z,11.02
2018-11-05T09:38:47.736Z,10.71
2018-11-05T09:39:47.712Z,10.78
2018-11-05T09:40:47.688Z,10.89
2018-11-05T09:41:47.665Z,11.01
2018-11-05T09:42:47.804Z,10.80
2018-11-05T09:43:47.618Z,10.76
2018-11-05T09:44:47.595Z,10.86
2018-11-05T09:45:47.572Z,10.98
2018-11-05T09:46:47.548Z,10.96
2018-11-05T09:47:47.526Z,10.98
2018-11-05T09:48:47.501Z,11.06
2018-11-05T09:49:47.479Z,11.16
2018-11-05T09:50:47.551Z,11.13
2018-11-05T09:51:47.433Z,11.13
2018-11-05T09:52:47.409Z,11.21
2018-11-05T09:53:47.394Z,11.11
2018-11-05T09:54:47.363Z,10.95
2018-11-05T09:55:47.340Z,11.03
2018-11-05T09:56:47.316Z,11.02
2018-11-05T09:57:47.294Z,10.99
2018-11-05T09:58:51.775Z,11.10
2018-11-05T09:59:47.247Z,11.19
2018-11-05T10:00:47.225Z,11.10
2018-11-05T10:01:47.203Z,11.17
2018-11-05T10:02:47.232Z,11.27
2018-11-05T10:03:47.448Z,11.31
2018-11-05T10:04:47.430Z,11.35
2018-11-05T10:05:47.113Z,11.38
2018-11-05T10:06:47.091Z,11.46
2018-11-05T10:07:47.063Z,11.38
2018-11-05T10:08:47.041Z,11.47
2018-11-05T10:09:47.145Z,11.38
2018-11-05T10:10:46.998Z,11.44
2018-11-05T10:11:46.975Z,11.20
2018-11-05T10:12:46.950Z,11.03
2018-11-05T10:13:46.927Z,10.89
2018-11-05T10:14:46.904Z,10.71
2018-11-05T10:15:46.879Z,10.91
2018-11-05T10:16:46.856Z,10.98
2018-11-05T10:17:46.834Z,11.03
2018-11-05T10:18:46.811Z,11.10
2018-11-05T10:19:46.787Z,11.21
2018-11-05T10:20:46.768Z,11.25
2018-11-05T10:21:46.743Z,11.50
2018-11-05T10:22:46.725Z,11.49
2018-11-05T10:23:46.697Z,11.52
2018-11-05T10:24:46.736Z,11.50
2018-11-05T10:25:46.652Z,11.46
2018-11-05T10:26:46.630Z,11.52
2018-11-05T10:27:46.606Z,11.49
2018-11-05T10:28:46.582Z,11.52
2018-11-05T10:29:46.565Z,11.61
2018-11-05T10:30:46.540Z,11.61
2018-11-05T10:31:46.515Z,11.65
2018-11-05T10:32:46.497Z,11.50
2018-11-05T10:33:46.566Z,11.34
2018-11-05T10:34:46.449Z,11.09
2018-11-05T10:35:46.424Z,11.14
2018-11-05T10:36:46.402Z,11.24
2018-11-05T10:37:46.381Z,11.57
2018-11-05T10:38:46.358Z,11.34
2018-11-05T10:39:46.334Z,11.49
2018-11-05T10:40:46.313Z,11.59
2018-11-05T10:41:46.290Z,11.62
2018-11-05T10:42:46.269Z,11.75
2018-11-05T10:43:46.248Z,11.78
2018-11-05T10:44:46.222Z,12.09
2018-11-05T10:45:46.200Z,12.15
2018-11-05T10:46:46.178Z,12.41
2018-11-05T10:47:46.160Z,12.27
2018-11-05T10:48:46.133Z,11.97
2018-11-05T10:49:46.111Z,11.90
2018-11-05T10:50:46.153Z,12.13
2018-11-05T10:51:46.110Z,12.21
2018-11-05T10:52:46.045Z,12.19
2018-11-05T10:53:46.024Z,12.38
2018-11-05T10:54:46.003Z,12.49
2018-11-05T10:55:45.978Z,12.48
2018-11-05T10:56:45.963Z,12.57
2018-11-05T10:57:45.939Z,12.37
2018-11-05T10:58:45.913Z,12.23
2018-11-05T10:59:45.889Z,12.09
2018-11-05T11:00:45.869Z,12.23
2018-11-05T11:01:45.847Z,12.24
2018-11-05T11:02:45.824Z,12.49
2018-11-05T11:03:45.863Z,12.60
2018-11-05T11:04:45.781Z,12.81
2018-11-05T11:05:45.759Z,12.92
2018-11-05T11:06:45.739Z,12.82
2018-11-05T11:07:45.717Z,12.66
2018-11-05T11:08:45.695Z,12.84
2018-11-05T11:09:45.699Z,12.95
2018-11-05T11:10:45.651Z,13.00
2018-11-05T11:11:45.628Z,13.03
2018-11-05T11:12:45.606Z,13.11
2018-11-05T11:13:45.585Z,12.99
2018-11-05T11:14:45.565Z,13.17
2018-11-05T11:15:45.585Z,13.17
2018-11-05T11:16:45.526Z,13.21
2018-11-05T11:17:45.505Z,13.18
2018-11-05T11:18:45.477Z,13.04
2018-11-05T11:19:45.456Z,13.09
2018-11-05T11:20:45.435Z,13.17
2018-11-05T11:21:45.414Z,13.20
2018-11-05T11:22:45.392Z,13.09
2018-11-05T11:23:45.370Z,13.18
2018-11-05T11:24:45.348Z,13.32
2018-11-05T11:25:45.329Z,13.30
2018-11-05T11:26:45.307Z,13.12
2018-11-05T11:27:45.373Z,13.32
2018-11-05T11:28:45.289Z,13.47
2018-11-05T11:29:45.242Z,13.43
2018-11-05T11:30:45.221Z,13.49
2018-11-05T11:31:45.200Z,13.61
2018-11-05T11:32:45.180Z,13.49
2018-11-05T11:33:45.158Z,13.36
2018-11-05T11:34:45.136Z,13.47
2018-11-05T11:35:45.114Z,13.47
2018-11-05T11:36:45.253Z,13.40
2018-11-05T11:37:45.072Z,13.27
2018-11-05T11:38:45.051Z,13.36
2018-11-05T11:39:45.029Z,13.30
2018-11-05T11:40:45.008Z,13.09
2018-11-05T11:41:44.987Z,13.00
2018-11-05T11:42:44.967Z,12.85
2018-11-05T11:43:44.944Z,12.92
2018-11-05T11:44:44.956Z,13.02
2018-11-05T11:45:44.904Z,12.96
2018-11-05T11:46:44.882Z,12.97
2018-11-05T11:47:44.859Z,13.14
2018-11-05T11:48:44.839Z,13.24
2018-11-05T11:49:44.820Z,13.40
2018-11-05T11:50:44.795Z,13.62
2018-11-05T11:51:44.774Z,13.70
2018-11-05T11:52:44.764Z,13.47
2018-11-05T11:53:44.736Z,13.36
2018-11-05T11:54:44.711Z,13.00
2018-11-05T11:55:44.689Z,12.93
2018-11-05T11:56:44.683Z,12.96
2018-11-05T11:57:44.648Z,12.89
2018-11-05T11:58:44.634Z,12.99
2018-11-05T11:59:44.669Z,12.82
2018-11-05T12:00:44.611Z,12.67
2018-11-05T12:01:44.563Z,12.62
2018-11-05T12:02:44.541Z,12.78
2018-11-05T12:03:44.538Z,13.02
2018-11-05T12:04:44.570Z,13.06
2018-11-05T12:05:44.479Z,13.18
2018-11-05T12:06:44.457Z,13.17
2018-11-05T12:07:44.432Z,13.02
2018-11-05T12:08:44.410Z,12.96
2018-11-05T12:09:44.395Z,12.77
2018-11-05T12:10:44.368Z,12.62
2018-11-05T12:11:44.344Z,12.74
2018-11-05T12:12:44.327Z,12.81
2018-11-05T12:13:44.302Z,12.79
2018-11-05T12:14:44.483Z,12.97
2018-11-05T12:15:44.265Z,12.89
2018-11-05T12:16:44.236Z,12.85
2018-11-05T12:17:44.215Z,12.85
2018-11-05T12:18:44.195Z,12.95
2018-11-05T12:19:44.171Z,12.99
2018-11-05T12:20:44.149Z,12.99
2018-11-05T12:21:44.127Z,12.92
2018-11-05T12:22:44.106Z,13.14
2018-11-05T12:23:44.084Z,13.32
2018-11-05T12:24:44.121Z,13.38
2018-11-05T12:25:44.040Z,13.54
2018-11-05T12:26:44.024Z,13.62
2018-11-05T12:27:43.995Z,13.63
2018-11-05T12:28:43.974Z,13.74
2018-11-05T12:29:43.953Z,13.91
2018-11-05T12:30:43.931Z,13.91
2018-11-05T12:31:43.910Z,13.91
2018-11-05T12:32:43.889Z,13.94
2018-11-05T12:33:43.867Z,13.99
2018-11-05T12:34:43.845Z,14.10
2018-11-05T12:35:43.825Z,14.07
2018-11-05T12:36:43.801Z,14.12
2018-11-05T12:37:43.782Z,14.32
2018-11-05T12:38:43.810Z,14.16
2018-11-05T12:39:43.736Z,14.07
2018-11-05T12:40:43.715Z,14.17
2018-11-05T12:41:43.699Z,14.12
2018-11-05T12:42:43.672Z,14.17
2018-11-05T12:43:43.651Z,14.27
2018-11-05T12:44:44.427Z,14.28
2018-11-05T12:45:43.610Z,14.53
2018-11-05T12:46:43.593Z,14.57
2018-11-05T12:47:43.568Z,14.69
2018-11-05T12:48:43.545Z,14.86
2018-11-05T12:49:43.523Z,14.87
2018-11-05T12:50:43.615Z,14.95
2018-11-05T12:51:43.481Z,14.87
2018-11-05T12:52:43.464Z,14.91
2018-11-05T12:53:43.438Z,14.56
2018-11-05T12:54:43.419Z,14.21
2018-11-05T12:55:44.148Z,14.31
2018-11-05T12:56:43.375Z,14.34
2018-11-05T12:57:43.353Z,14.31
2018-11-05T12:58:43.334Z,14.34
2018-11-05T12:59:43.311Z,14.14
2018-11-05T13:00:43.291Z,14.07
2018-11-05T13:01:43.269Z,14.09
2018-11-05T13:02:43.249Z,14.04